createdAt,value
2018-05-13T00:02:25.487Z,26.20
2018-05-13T00:04:53.836Z,25.63
2018-05-13T00:07:22.210Z,26.53
2018-05-13T00:09:50.560Z,28.23
2018-05-13T00:12:18.903Z,29.00
2018-05-13T00:14:47.628Z,27.57
2018-05-13T00:17:16.729Z,25.43
2018-05-13T00:19:45.815Z,25.80
2018-05-13T00:22:14.940Z,26.43
2018-05-13T00:24:43.321Z,27.80
2018-05-13T00:27:11.673Z,27.07
2018-05-13T00:29:40.812Z,26.10
2018-05-13T00:32:09.139Z,25.43
2018-05-13T00:34:38.223Z,26.73
2018-05-13T00:37:06.916Z,26.00
2018-05-13T00:39:35.226Z,26.27
2018-05-13T00:42:03.590Z,25.57
2018-05-13T00:44:32.728Z,25.33
2018-05-13T00:47:01.072Z,24.27
2018-05-13T00:49:29.408Z,26.57
2018-05-13T00:51:57.755Z,26.30
2018-05-13T00:54:43.598Z,24.30
2018-05-13T00:57:12.407Z,24.83
2018-05-13T00:59:40.772Z,25.67
2018-05-13T01:02:09.875Z,24.80
2018-05-13T01:04:39.008Z,25.20
2018-05-13T01:07:07.347Z,24.27
2018-05-13T01:09:36.443Z,23.30
2018-05-13T01:12:04.826Z,23.10
2018-05-13T01:14:33.943Z,23.30
2018-05-13T01:17:02.245Z,21.67
2018-05-13T01:19:30.808Z,24.07
2018-05-13T01:21:59.155Z,25.27
2018-05-13T01:24:28.260Z,24.40
2018-05-13T01:26:57.416Z,24.47
2018-05-13T01:29:25.731Z,24.27
2018-05-13T01:31:54.075Z,23.73
2018-05-13T01:34:22.411Z,25.00
2018-05-13T01:36:50.756Z,23.90
2018-05-13T01:39:19.852Z,24.93
2018-05-13T01:41:48.459Z,24.40
2018-05-13T01:44:17.560Z,22.80
2018-05-13T01:46:46.669Z,22.90
2018-05-13T01:49:15.043Z,24.47
2018-05-13T01:51:43.428Z,22.53
2018-05-13T01:54:11.778Z,24.40
2018-05-13T01:56:41.022Z,22.97
2018-05-13T01:59:09.341Z,22.30
2018-05-13T02:01:37.665Z,22.50
2018-05-13T02:04:06.116Z,23.30
2018-05-13T02:06:34.453Z,24.60
2018-05-13T02:09:02.801Z,23.57
2018-05-13T02:11:31.147Z,25.10
2018-05-13T02:13:59.473Z,24.40
2018-05-13T02:16:27.790Z,23.70
2018-05-13T02:18:56.186Z,22.90
2018-05-13T02:21:24.507Z,25.33
2018-05-13T02:23:52.817Z,22.60
2018-05-13T02:26:21.469Z,23.50
2018-05-13T02:28:50.572Z,22.10
2018-05-13T02:31:18.900Z,23.60
2018-05-13T02:33:48.033Z,23.30
2018-05-13T02:36:16.337Z,23.20
2018-05-13T02:38:44.651Z,23.90
2018-05-13T02:41:13.007Z,23.60
2018-05-13T02:43:42.099Z,25.83
2018-05-13T02:46:10.425Z,23.73
2018-05-13T02:48:40.078Z,23.87
2018-05-13T02:51:08.430Z,21.60
2018-05-13T02:53:36.783Z,23.50
2018-05-13T02:56:05.944Z,24.00
2018-05-13T02:58:34.681Z,22.77
2018-05-13T03:01:03.764Z,23.53
2018-05-13T03:03:32.871Z,22.70
2018-05-13T03:06:01.940Z,24.17
2018-05-13T03:08:31.099Z,23.10
2018-05-13T03:10:59.824Z,21.83
2018-05-13T03:13:28.123Z,21.67
2018-05-13T03:15:56.455Z,24.20
2018-05-13T03:18:24.804Z,23.30
2018-05-13T03:20:53.145Z,24.57
2018-05-13T03:23:22.278Z,22.07
2018-05-13T03:25:50.692Z,24.30
2018-05-13T03:28:19.083Z,24.30
2018-05-13T03:30:47.484Z,24.70
2018-05-13T03:33:16.191Z,23.83
2018-05-13T03:35:44.520Z,24.63
2018-05-13T03:38:12.815Z,22.80
2018-05-13T03:40:41.205Z,22.97
2018-05-13T03:43:09.536Z,22.90
2018-05-13T03:45:37.875Z,22.07
2018-05-13T03:48:06.991Z,23.17
2018-05-13T03:50:36.168Z,23.50
2018-05-13T03:53:04.514Z,23.37
2018-05-13T03:55:33.062Z,22.33
2018-05-13T03:58:01.401Z,22.43
2018-05-13T04:00:29.740Z,22.37
2018-05-13T04:02:58.105Z,23.57
2018-05-13T04:05:26.464Z,23.53
2018-05-13T04:11:42.426Z,23.47
2018-05-13T04:14:28.977Z,23.40
2018-05-13T04:16:58.043Z,23.10
2018-05-13T04:19:26.359Z,22.67
2018-05-13T04:21:54.727Z,22.47
2018-05-13T04:24:23.856Z,22.13
2018-05-13T04:26:52.154Z,22.90
2018-05-13T04:29:20.532Z,24.13
2018-05-13T04:31:48.927Z,21.57
2018-05-13T04:34:17.254Z,22.13
2018-05-13T04:36:45.792Z,21.43
2018-05-13T04:39:14.116Z,23.80
2018-05-13T04:41:42.420Z,23.20
2018-05-13T04:44:10.794Z,21.77
2018-05-13T04:46:39.123Z,23.70
2018-05-13T04:49:07.447Z,22.20
2018-05-13T04:51:35.816Z,21.43
2018-05-13T04:54:04.144Z,22.27
2018-05-13T04:56:32.459Z,22.43
2018-05-13T04:59:01.961Z,21.83
2018-05-13T05:01:31.235Z,22.83
2018-05-13T05:03:59.605Z,22.70
2018-05-13T05:06:27.990Z,22.47
2018-05-13T05:08:56.392Z,23.33
2018-05-13T05:11:24.707Z,22.20
2018-05-13T05:13:53.091Z,23.90
2018-05-13T05:16:21.428Z,22.47
2018-05-13T05:18:49.772Z,22.97
2018-05-13T05:21:18.579Z,20.50
2018-05-13T05:23:46.893Z,22.17
2018-05-13T05:26:15.230Z,22.50
2018-05-13T05:28:43.577Z,24.43
2018-05-13T05:31:11.886Z,22.30
2018-05-13T05:33:40.226Z,23.47
2018-05-13T05:36:08.583Z,22.23
2018-05-13T05:38:36.912Z,23.50
2018-05-13T05:41:05.232Z,21.70
2018-05-13T05:43:34.442Z,22.73
2018-05-13T05:46:02.778Z,21.90
2018-05-13T05:48:31.111Z,22.23
2018-05-13T05:50:59.473Z,23.97
2018-05-13T05:53:27.819Z,21.70
2018-05-13T05:55:56.140Z,23.10
2018-05-13T05:58:24.518Z,22.17
2018-05-13T06:00:52.834Z,24.57
2018-05-13T06:03:21.260Z,24.03
2018-05-13T06:05:50.020Z,23.40
2018-05-13T06:08:18.356Z,23.47
2018-05-13T06:10:46.687Z,23.70
2018-05-13T06:13:15.093Z,22.90
2018-05-13T06:15:44.185Z,22.50
2018-05-13T06:18:13.286Z,21.93
2018-05-13T06:20:41.663Z,23.53
2018-05-13T06:23:10.769Z,23.60
2018-05-13T06:25:39.105Z,25.00
2018-05-13T06:28:07.811Z,24.20
2018-05-13T06:30:36.158Z,25.70
2018-05-13T06:33:04.478Z,24.70
2018-05-13T06:35:33.611Z,24.17
2018-05-13T06:38:01.934Z,21.97
2018-05-13T06:40:30.283Z,22.77
2018-05-13T06:42:58.638Z,23.50
2018-05-13T06:45:26.976Z,25.63
2018-05-13T06:47:55.293Z,24.10
2018-05-13T06:50:24.136Z,22.90
2018-05-13T06:52:52.469Z,22.90
2018-05-13T06:55:20.811Z,21.67
2018-05-13T06:57:49.928Z,23.07
2018-05-13T07:00:18.293Z,23.67
2018-05-13T07:02:47.441Z,24.50
2018-05-13T07:05:15.754Z,23.20
2018-05-13T07:07:44.087Z,23.40
2018-05-13T07:10:12.410Z,23.80
2018-05-13T07:12:41.915Z,21.63
2018-05-13T07:15:10.250Z,23.33
2018-05-13T07:17:38.598Z,21.03
2018-05-13T07:20:06.985Z,25.13
2018-05-13T07:22:35.350Z,22.53
2018-05-13T07:25:04.450Z,20.90
2018-05-13T07:27:33.594Z,20.80
2018-05-13T07:30:01.978Z,21.53
2018-05-13T07:32:30.307Z,21.40
2018-05-13T07:34:58.882Z,19.60
2018-05-13T07:37:27.974Z,21.23
2018-05-13T07:39:57.099Z,21.50
2018-05-13T07:42:25.455Z,20.20
2018-05-13T07:44:55.008Z,20.73
2018-05-13T07:47:23.347Z,20.47
2018-05-13T07:49:52.470Z,20.60
2018-05-13T07:52:20.820Z,20.60
2018-05-13T07:54:49.994Z,19.90
2018-05-13T07:57:18.755Z,18.77
2018-05-13T07:59:47.076Z,21.60
2018-05-13T08:02:16.174Z,19.50
2018-05-13T08:04:45.309Z,19.87
2018-05-13T08:07:13.623Z,17.83
2018-05-13T08:09:41.948Z,18.80
2018-05-13T08:12:10.332Z,19.93
2018-05-13T08:14:38.636Z,20.13
2018-05-13T08:17:06.958Z,19.53
2018-05-13T08:19:36.456Z,19.23
2018-05-13T08:22:04.795Z,19.30
2018-05-13T08:24:33.128Z,18.57
2018-05-13T08:27:02.260Z,18.80
2018-05-13T08:29:30.586Z,18.37
2018-05-13T08:31:58.909Z,16.07
2018-05-13T08:34:27.307Z,18.13
2018-05-13T08:36:55.648Z,17.47
2018-05-13T08:39:24.771Z,17.70
2018-05-13T08:41:53.708Z,18.50
2018-05-13T08:44:22.725Z,19.10
2018-05-13T08:46:51.093Z,18.27
2018-05-13T08:49:20.229Z,17.80
2018-05-13T08:51:48.565Z,21.23
2018-05-13T08:54:16.920Z,18.70
2018-05-13T08:56:45.304Z,20.30
2018-05-13T08:59:13.655Z,19.60
2018-05-13T09:01:41.986Z,17.73
2018-05-13T09:04:11.484Z,19.33
2018-05-13T09:06:39.853Z,19.43
2018-05-13T09:09:08.185Z,17.00
2018-05-13T09:11:36.527Z,18.80
2018-05-13T09:14:04.900Z,20.20
2018-05-13T09:16:33.184Z,17.50
2018-05-13T09:19:01.536Z,18.13
2018-05-13T09:21:29.855Z,17.37
2018-05-13T09:23:58.927Z,17.40
2018-05-13T09:26:27.338Z,16.87
2018-05-13T09:28:55.688Z,16.67
2018-05-13T09:31:24.035Z,16.90
2018-05-13T09:33:52.479Z,16.80
2018-05-13T09:36:21.566Z,15.63
2018-05-13T09:38:49.904Z,17.20
2018-05-13T09:41:18.271Z,17.13
2018-05-13T09:43:46.612Z,16.10
2018-05-13T09:46:15.024Z,15.27
2018-05-13T09:48:43.607Z,16.00
2018-05-13T09:51:11.972Z,15.27
2018-05-13T09:53:40.333Z,14.60
2018-05-13T09:56:08.701Z,15.60
2018-05-13T09:58:37.114Z,14.60
2018-05-13T10:01:05.436Z,15.50
2018-05-13T10:03:33.822Z,14.97
2018-05-13T10:06:02.171Z,13.20
2018-05-13T10:08:30.493Z,13.30
2018-05-13T10:10:59.223Z,13.10
2018-05-13T10:13:27.564Z,12.30
2018-05-13T10:15:56.644Z,12.60
2018-05-13T10:18:24.992Z,14.40
2018-05-13T10:20:53.334Z,13.10
2018-05-13T10:23:21.653Z,12.40
2018-05-13T10:25:50.041Z,12.57
2018-05-13T10:28:18.362Z,11.70
2018-05-13T10:30:46.684Z,10.90
2018-05-13T10:33:15.948Z,11.97
2018-05-13T10:35:45.040Z,11.70
2018-05-13T10:38:13.363Z,12.87
2018-05-13T10:40:41.725Z,11.90
2018-05-13T10:43:10.828Z,11.30
2018-05-13T10:45:39.173Z,11.17
2018-05-13T10:48:07.546Z,11.77
2018-05-13T10:50:36.647Z,11.40
2018-05-13T10:53:05.792Z,10.37
2018-05-13T10:55:34.351Z,10.70
2018-05-13T10:58:02.694Z,10.20
2018-05-13T11:00:31.773Z,10.20
2018-05-13T11:03:00.139Z,10.27
2018-05-13T11:05:28.469Z,9.13
2018-05-13T11:07:56.800Z,9.30
2018-05-13T11:10:25.152Z,9.23
2018-05-13T11:12:53.485Z,8.73
2018-05-13T11:15:22.575Z,9.90
2018-05-13T11:17:51.191Z,9.27
2018-05-13T11:20:19.574Z,10.47
2018-05-13T11:22:47.916Z,10.40
2018-05-13T11:25:17.138Z,9.00
2018-05-13T11:27:45.548Z,9.40
2018-05-13T11:30:13.970Z,8.40
2018-05-13T11:32:42.324Z,8.57
2018-05-13T11:35:10.648Z,8.00
2018-05-13T11:37:39.718Z,7.27
2018-05-13T11:40:08.223Z,8.00
2018-05-13T11:42:37.636Z,9.47
2018-05-13T11:45:06.748Z,9.40
2018-05-13T11:47:35.102Z,9.40
2018-05-13T11:50:04.204Z,10.20
2018-05-13T11:52:32.548Z,10.13
2018-05-13T11:55:00.918Z,9.80
2018-05-13T11:57:29.240Z,10.10
2018-05-13T11:59:57.596Z,9.43
2018-05-13T12:02:26.391Z,9.80
2018-05-13T12:04:55.413Z,9.47
2018-05-13T12:07:23.732Z,9.83
2018-05-13T12:09:52.105Z,9.90
2018-05-13T12:12:20.468Z,9.70
2018-05-13T12:14:48.822Z,10.03
2018-05-13T12:17:17.935Z,9.10
2018-05-13T12:19:46.258Z,9.00
2018-05-13T12:22:15.365Z,10.13
2018-05-13T12:24:43.992Z,9.27
2018-05-13T12:27:12.304Z,9.40
2018-05-13T12:29:40.631Z,9.10
2018-05-13T12:32:09.026Z,9.20
2018-05-13T12:34:37.340Z,9.30
2018-05-13T12:37:05.665Z,9.00
2018-05-13T12:39:34.808Z,8.23
2018-05-13T12:42:03.159Z,8.27
2018-05-13T12:44:31.501Z,8.60
2018-05-13T12:47:00.315Z,8.37
2018-05-13T12:49:28.647Z,8.00
2018-05-13T12:51:56.978Z,8.83
2018-05-13T12:54:25.325Z,8.43
2018-05-13T12:56:53.661Z,8.20
2018-05-13T12:59:22.015Z,7.93
2018-05-13T13:01:50.367Z,8.77
2018-05-13T13:04:19.502Z,7.97
2018-05-13T13:06:47.832Z,8.20
2018-05-13T13:09:16.380Z,8.50
2018-05-13T13:11:44.722Z,7.43
2018-05-13T13:14:13.040Z,8.60
2018-05-13T13:16:41.412Z,7.77
2018-05-13T13:19:09.781Z,8.47
2018-05-13T13:21:38.201Z,8.70
2018-05-13T13:24:06.547Z,7.80
2018-05-13T13:26:34.901Z,7.17
2018-05-13T13:29:03.221Z,8.00
2018-05-13T13:31:32.457Z,8.03
2018-05-13T13:34:01.599Z,7.30
2018-05-13T13:36:29.905Z,8.20
2018-05-13T13:38:58.267Z,6.90
2018-05-13T13:41:26.590Z,7.53
2018-05-13T13:43:55.674Z,7.47
2018-05-13T13:46:24.032Z,7.30
2018-05-13T13:48:52.339Z,7.53
2018-05-13T13:51:20.674Z,8.03
2018-05-13T13:53:49.163Z,7.60
2018-05-13T13:56:17.507Z,8.10
2018-05-13T13:58:45.819Z,7.57
2018-05-13T14:01:14.154Z,7.63
2018-05-13T14:03:43.235Z,7.23
2018-05-13T14:06:11.570Z,6.90
2018-05-13T14:08:39.979Z,7.23
2018-05-13T14:11:08.326Z,6.53
2018-05-13T14:13:36.663Z,7.17
2018-05-13T14:16:06.119Z,6.73
2018-05-13T14:18:34.451Z,7.00
2018-05-13T14:21:03.550Z,7.20
2018-05-13T14:23:32.648Z,7.20
2018-05-13T14:26:01.740Z,6.50
2018-05-13T14:28:30.842Z,5.77
2018-05-13T14:30:59.218Z,6.80
2018-05-13T14:33:27.568Z,6.80
2018-05-13T14:35:56.714Z,6.30
2018-05-13T14:38:25.240Z,6.33
2018-05-13T14:40:53.647Z,6.47
2018-05-13T14:43:21.949Z,6.90
2018-05-13T14:45:51.151Z,5.67
2018-05-13T14:48:19.488Z,5.93
2018-05-13T14:50:47.800Z,5.40
2018-05-13T14:53:16.195Z,6.10
2018-05-13T14:55:44.563Z,5.77
2018-05-13T14:58:13.040Z,6.10
2018-05-13T15:00:41.630Z,5.47
2018-05-13T15:03:09.944Z,5.03
2018-05-13T15:05:38.261Z,5.30
2018-05-13T15:08:07.409Z,5.00
2018-05-13T15:10:35.727Z,5.17
2018-05-13T15:13:04.062Z,5.23
2018-05-13T15:15:32.441Z,5.53
2018-05-13T15:18:00.775Z,5.40
2018-05-13T15:20:29.861Z,5.00
2018-05-13T15:22:58.394Z,5.13
2018-05-13T15:25:26.705Z,5.10
2018-05-13T15:27:55.049Z,4.63
2018-05-13T15:30:23.403Z,4.87
2018-05-13T15:32:51.750Z,5.70
2018-05-13T15:35:20.048Z,5.50
2018-05-13T15:37:49.139Z,5.53
2018-05-13T15:40:18.243Z,5.50
2018-05-13T15:42:47.448Z,4.80
2018-05-13T15:45:16.639Z,6.00
2018-05-13T15:47:44.990Z,5.10
2018-05-13T15:50:13.315Z,5.50
2018-05-13T15:52:41.717Z,5.03
2018-05-13T15:55:10.088Z,5.30
2018-05-13T15:57:38.408Z,5.70
2018-05-13T16:00:06.762Z,4.83
2018-05-13T16:02:35.071Z,5.40
2018-05-13T16:05:03.418Z,4.70
2018-05-13T16:07:31.824Z,5.27
2018-05-13T16:10:00.420Z,5.33
2018-05-13T16:12:28.754Z,5.37
2018-05-13T16:14:57.133Z,5.13
2018-05-13T16:17:25.459Z,4.70
2018-05-13T16:19:54.575Z,4.30
2018-05-13T16:22:22.925Z,4.77
2018-05-13T16:24:51.232Z,5.07
2018-05-13T16:27:20.337Z,5.10
2018-05-13T16:29:48.729Z,6.03
2018-05-13T16:32:17.044Z,4.60
2018-05-13T16:34:45.408Z,4.57
2018-05-13T16:37:13.808Z,5.10
2018-05-13T16:39:42.156Z,4.80
2018-05-13T16:42:10.495Z,4.60
2018-05-13T16:44:39.621Z,4.37
2018-05-13T16:47:07.959Z,4.17
2018-05-13T16:49:36.300Z,4.60
2018-05-13T16:52:05.071Z,4.93
2018-05-13T16:54:33.375Z,4.80
2018-05-13T16:57:01.714Z,3.93
2018-05-13T16:59:30.186Z,3.97
2018-05-13T17:01:58.516Z,3.80
2018-05-13T17:04:26.865Z,4.20
2018-05-13T17:06:55.248Z,4.50
2018-05-13T17:09:23.646Z,3.83
2018-05-13T17:11:51.977Z,3.73
2018-05-13T17:14:20.727Z,4.47
2018-05-13T17:16:49.825Z,3.87
2018-05-13T17:19:18.169Z,3.57
2018-05-13T17:21:46.535Z,3.60
2018-05-13T17:24:14.949Z,4.07
2018-05-13T17:26:43.296Z,3.97
2018-05-13T17:29:11.650Z,4.07
2018-05-13T17:34:54.492Z,3.77
2018-05-13T17:37:23.691Z,3.97
2018-05-13T17:39:51.955Z,4.37
2018-05-13T17:42:20.277Z,3.50
2018-05-13T17:44:48.580Z,3.87
2018-05-13T17:47:16.938Z,4.00
2018-05-13T17:49:45.432Z,4.10
2018-05-13T17:52:13.713Z,3.80
2018-05-13T17:54:42.039Z,3.80
2018-05-13T17:57:11.535Z,3.50
2018-05-13T17:59:39.884Z,3.43
2018-05-13T18:02:08.237Z,3.90
2018-05-13T18:04:36.636Z,3.90
2018-05-13T18:07:05.384Z,3.93
2018-05-13T18:09:33.777Z,4.07
2018-05-13T18:12:02.148Z,3.60
2018-05-13T18:14:30.499Z,3.80
2018-05-13T18:16:58.881Z,3.50
2018-05-13T18:19:28.275Z,6.70
2018-05-13T18:21:56.630Z,3.60
2018-05-13T18:24:24.964Z,3.90
2018-05-13T18:26:53.336Z,3.90
2018-05-13T18:29:21.628Z,4.50
2018-05-13T18:31:50.014Z,4.40
2018-05-13T18:34:19.119Z,5.33
2018-05-13T18:36:47.428Z,3.70
2018-05-13T18:39:15.837Z,4.80
2018-05-13T18:41:45.036Z,4.30
2018-05-13T18:44:13.430Z,3.80
2018-05-13T18:46:42.526Z,4.33
2018-05-13T18:49:10.914Z,3.83
2018-05-13T18:51:39.260Z,3.70
2018-05-13T18:54:07.630Z,4.57
2018-05-13T18:56:36.002Z,4.00
2018-05-13T18:59:04.410Z,4.43
2018-05-13T19:01:32.700Z,5.30
2018-05-13T19:04:01.560Z,4.00
2018-05-13T19:06:29.882Z,4.50
2018-05-13T19:08:58.623Z,4.23
2018-05-13T19:11:27.029Z,4.70
2018-05-13T19:13:55.390Z,5.37
2018-05-13T19:16:23.720Z,4.63
2018-05-13T19:18:52.106Z,4.60
2018-05-13T19:21:20.451Z,4.50
2018-05-13T19:23:49.516Z,4.53
2018-05-13T19:26:17.924Z,4.33
2018-05-13T19:28:47.010Z,4.20
2018-05-13T19:31:15.381Z,4.50
2018-05-13T19:33:43.791Z,4.40
2018-05-13T19:36:12.109Z,4.50
2018-05-13T19:38:41.212Z,4.50
2018-05-13T19:41:09.612Z,4.63
2018-05-13T19:43:38.012Z,4.83
2018-05-13T19:46:07.151Z,4.60
2018-05-13T19:48:35.812Z,3.43
2018-05-13T19:51:04.848Z,4.70
2018-05-13T19:53:33.166Z,4.23
2018-05-13T19:56:02.305Z,4.57
2018-05-13T19:58:30.635Z,4.23
2018-05-13T20:00:58.979Z,4.57
2018-05-13T20:03:27.483Z,5.20
2018-05-13T20:05:55.727Z,4.90
2018-05-13T20:08:24.093Z,5.17
2018-05-13T20:10:52.875Z,4.87
2018-05-13T20:13:21.211Z,4.53
2018-05-13T20:15:50.369Z,4.23
2018-05-13T20:18:18.772Z,4.43
2018-05-13T20:20:47.117Z,4.37
2018-05-13T20:23:26.411Z,4.67
2018-05-13T20:25:54.680Z,4.53
2018-05-13T20:28:23.825Z,4.83
2018-05-13T20:30:52.755Z,4.50
2018-05-13T20:33:21.066Z,5.43
2018-05-13T20:35:49.400Z,4.87
2018-05-13T20:38:17.767Z,4.60
2018-05-13T20:40:46.118Z,4.50
2018-05-13T20:43:15.209Z,4.87
2018-05-13T20:45:44.327Z,5.40
2018-05-13T20:48:12.656Z,4.87
2018-05-13T20:50:40.989Z,4.50
2018-05-13T20:53:09.404Z,4.37
2018-05-13T20:55:37.753Z,4.70
2018-05-13T20:58:06.852Z,4.80
2018-05-13T21:00:35.258Z,5.00
2018-05-13T21:03:03.600Z,5.07
2018-05-13T21:05:31.987Z,5.03
2018-05-13T21:08:00.355Z,4.67
2018-05-13T21:10:28.776Z,5.17
2018-05-13T21:12:57.094Z,4.87
2018-05-13T21:15:25.646Z,5.53
2018-05-13T21:17:55.520Z,5.33
2018-05-13T21:20:23.881Z,5.17
2018-05-13T21:22:52.226Z,4.77
2018-05-13T21:25:20.545Z,4.73
2018-05-13T21:27:48.918Z,4.80
2018-05-13T21:30:17.359Z,4.57
2018-05-13T21:32:45.640Z,4.97
2018-05-13T21:35:13.982Z,4.60
2018-05-13T21:37:42.820Z,7.00
2018-05-13T21:40:11.190Z,5.80
2018-05-13T21:42:40.348Z,5.00
2018-05-13T21:45:08.793Z,4.80
2018-05-13T21:47:37.895Z,4.63
2018-05-13T21:50:06.347Z,4.87
2018-05-13T21:52:35.505Z,4.80
2018-05-13T21:55:03.852Z,5.20
2018-05-13T21:57:32.177Z,5.63
2018-05-13T22:00:00.743Z,5.07
2018-05-13T22:02:29.053Z,5.53
2018-05-13T22:05:00.132Z,5.20
2018-05-13T22:07:28.503Z,4.77
2018-05-13T22:09:56.884Z,4.83
2018-05-13T22:12:25.218Z,4.40
2018-05-13T22:14:53.570Z,5.40
2018-05-13T22:17:21.977Z,4.67
2018-05-13T22:19:50.264Z,5.10
2018-05-13T22:22:18.929Z,5.47
2018-05-13T22:24:47.282Z,5.97
2018-05-13T22:27:15.653Z,5.73
2018-05-13T22:29:44.003Z,5.50
2018-05-13T22:32:12.320Z,5.03
2018-05-13T22:34:40.721Z,5.70
2018-05-13T22:37:09.063Z,5.80
2018-05-13T22:39:37.403Z,5.20
2018-05-13T22:42:05.751Z,5.37
2018-05-13T22:44:34.462Z,5.33
2018-05-13T22:47:02.795Z,5.23
2018-05-13T22:49:31.098Z,5.07
2018-05-13T22:51:59.455Z,5.23
2018-05-13T22:54:27.785Z,5.43
2018-05-13T22:56:56.097Z,5.83
2018-05-13T22:59:24.505Z,5.57
2018-05-13T23:01:52.827Z,5.30
2018-05-13T23:04:21.790Z,4.90
2018-05-13T23:06:50.831Z,5.30
2018-05-13T23:09:19.172Z,5.93
2018-05-13T23:11:47.461Z,5.50
2018-05-13T23:14:15.795Z,5.50
2018-05-13T23:16:44.111Z,5.50
2018-05-13T23:19:12.435Z,5.53
2018-05-13T23:21:41.565Z,4.63
2018-05-13T23:24:09.894Z,5.30
2018-05-13T23:26:39.020Z,5.70
2018-05-13T23:29:07.546Z,5.70
2018-05-13T23:31:35.916Z,6.33
2018-05-13T23:34:04.263Z,5.57
2018-05-13T23:36:32.604Z,5.77
2018-05-13T23:39:00.915Z,6.00
2018-05-13T23:41:29.240Z,6.10
2018-05-13T23:43:57.590Z,5.80
2018-05-13T23:46:25.895Z,6.07
2018-05-13T23:48:54.243Z,5.80
2018-05-13T23:51:22.727Z,5.80
2018-05-13T23:53:51.081Z,5.60
2018-05-13T23:56:20.175Z,6.07
2018-05-13T23:58:49.271Z,5.73
